sensor_id;sensor_type;location;lat;lon;timestamp;temperature;humidity
30280;DHT22;17097;50.916;5.344;2023-05-07T00:00:54;16.90;99.90
30280;DHT22;17097;50.916;5.344;2023-05-07T00:03:20;16.90;99.90
30280;DHT22;17097;50.916;5.344;2023-05-07T00:05:46;16.90;99.90
30280;DHT22;17097;50.916;5.344;2023-05-07T00:08:12;16.80;99.90
30280;DHT22;17097;50.916;5.344;2023-05-07T00:10:39;16.90;99.90
30280;DHT22;17097;50.916;5.344;2023-05-07T00:13:05;16.90;99.90
30280;DHT22;17097;50.916;5.344;2023-05-07T00:15:31;16.90;99.90
30280;DHT22;17097;50.916;5.344;2023-05-07T00:17:57;16.90;99.90
30280;DHT22;17097;50.916;5.344;2023-05-07T00:20:24;16.90;99.90
30280;DHT22;17097;50.916;5.344;2023-05-07T00:22:50;16.90;99.90
30280;DHT22;17097;50.916;5.344;2023-05-07T00:25:19;16.90;99.90
30280;DHT22;17097;50.916;5.344;2023-05-07T00:27:45;16.90;99.90
30280;DHT22;17097;50.916;5.344;2023-05-07T00:30:11;16.90;99.90
30280;DHT22;17097;50.916;5.344;2023-05-07T00:32:37;16.90;99.90
30280;DHT22;17097;50.916;5.344;2023-05-07T00:35:04;16.90;99.90
30280;DHT22;17097;50.916;5.344;2023-05-07T00:37:31;16.80;99.90
30280;DHT22;17097;50.916;5.344;2023-05-07T00:39:58;16.90;99.90
30280;DHT22;17097;50.916;5.344;2023-05-07T00:42:24;16.90;99.90
30280;DHT22;17097;50.916;5.344;2023-05-07T00:44:50;16.90;99.90
30280;DHT22;17097;50.916;5.344;2023-05-07T00:47:17;17.00;99.90
30280;DHT22;17097;50.916;5.344;2023-05-07T00:49:45;17.00;99.90
30280;DHT22;17097;50.916;5.344;2023-05-07T00:52:14;17.00;99.90
30280;DHT22;17097;50.916;5.344;2023-05-07T00:54:41;17.00;99.90
30280;DHT22;17097;50.916;5.344;2023-05-07T00:57:06;17.00;99.90
30280;DHT22;17097;50.916;5.344;2023-05-07T00:59:33;17.00;99.90
30280;DHT22;17097;50.916;5.344;2023-05-07T01:02:00;17.00;99.90
30280;DHT22;17097;50.916;5.344;2023-05-07T01:04:26;17.00;99.90
30280;DHT22;17097;50.916;5.344;2023-05-07T01:06:56;17.00;99.90
30280;DHT22;17097;50.916;5.344;2023-05-07T01:09:24;17.00;99.90
30280;DHT22;17097;50.916;5.344;2023-05-07T01:11:51;17.00;99.90
30280;DHT22;17097;50.916;5.344;2023-05-07T01:14:18;17.00;99.90
30280;DHT22;17097;50.916;5.344;2023-05-07T01:16:44;17.00;99.90
30280;DHT22;17097;50.916;5.344;2023-05-07T01:19:11;16.90;99.90
30280;DHT22;17097;50.916;5.344;2023-05-07T01:21:47;16.90;99.90
30280;DHT22;17097;50.916;5.344;2023-05-07T01:24:14;16.90;99.90
30280;DHT22;17097;50.916;5.344;2023-05-07T01:26:41;16.90;99.90
30280;DHT22;17097;50.916;5.344;2023-05-07T01:29:07;16.90;99.90
30280;DHT22;17097;50.916;5.344;2023-05-07T01:31:36;16.80;99.90
30280;DHT22;17097;50.916;5.344;2023-05-07T01:34:04;16.80;99.90
30280;DHT22;17097;50.916;5.344;2023-05-07T01:36:31;16.90;99.90
30280;DHT22;17097;50.916;5.344;2023-05-07T01:38:58;16.90;99.90
30280;DHT22;17097;50.916;5.344;2023-05-07T01:41:24;16.90;99.90
30280;DHT22;17097;50.916;5.344;2023-05-07T01:43:52;16.90;99.90
30280;DHT22;17097;50.916;5.344;2023-05-07T01:46:18;16.90;99.90
30280;DHT22;17097;50.916;5.344;2023-05-07T01:48:45;16.80;99.90
30280;DHT22;17097;50.916;5.344;2023-05-07T01:51:12;16.80;99.90
30280;DHT22;17097;50.916;5.344;2023-05-07T01:53:39;16.70;99.90
30280;DHT22;17097;50.916;5.344;2023-05-07T01:56:06;16.70;99.90
30280;DHT22;17097;50.916;5.344;2023-05-07T01:58:32;16.60;99.90
30280;DHT22;17097;50.916;5.344;2023-05-07T02:00:58;16.60;99.90
30280;DHT22;17097;50.916;5.344;2023-05-07T02:03:24;16.60;99.90
30280;DHT22;17097;50.916;5.344;2023-05-07T02:05:52;16.60;99.90
30280;DHT22;17097;50.916;5.344;2023-05-07T02:08:18;16.60;99.90
30280;DHT22;17097;50.916;5.344;2023-05-07T02:10:46;16.60;99.90
30280;DHT22;17097;50.916;5.344;2023-05-07T02:13:11;16.60;99.90
30280;DHT22;17097;50.916;5.344;2023-05-07T02:15:37;16.60;99.90
30280;DHT22;17097;50.916;5.344;2023-05-07T02:18:05;16.60;99.90
30280;DHT22;17097;50.916;5.344;2023-05-07T02:20:32;16.60;99.90
30280;DHT22;17097;50.916;5.344;2023-05-07T02:22:58;16.60;99.90
30280;DHT22;17097;50.916;5.344;2023-05-07T02:25:28;16.60;99.90
30280;DHT22;17097;50.916;5.344;2023-05-07T02:27:55;16.60;99.90
30280;DHT22;17097;50.916;5.344;2023-05-07T02:30:21;16.60;99.90
30280;DHT22;17097;50.916;5.344;2023-05-07T02:32:47;16.60;99.90
30280;DHT22;17097;50.916;5.344;2023-05-07T02:35:13;16.70;99.90
30280;DHT22;17097;50.916;5.344;2023-05-07T02:37:39;16.70;99.90
30280;DHT22;17097;50.916;5.344;2023-05-07T02:40:07;16.70;99.90
30280;DHT22;17097;50.916;5.344;2023-05-07T02:42:35;16.70;99.90
30280;DHT22;17097;50.916;5.344;2023-05-07T02:45:01;16.70;99.90
30280;DHT22;17097;50.916;5.344;2023-05-07T02:47:30;16.60;99.90
30280;DHT22;17097;50.916;5.344;2023-05-07T02:49:55;16.60;99.90
30280;DHT22;17097;50.916;5.344;2023-05-07T02:52:21;16.80;99.90
30280;DHT22;17097;50.916;5.344;2023-05-07T02:54:48;16.80;99.90
30280;DHT22;17097;50.916;5.344;2023-05-07T02:57:14;16.70;99.90
30280;DHT22;17097;50.916;5.344;2023-05-07T02:59:41;16.60;99.90
30280;DHT22;17097;50.916;5.344;2023-05-07T03:02:06;16.60;99.90
30280;DHT22;17097;50.916;5.344;2023-05-07T03:04:32;16.60;99.90
30280;DHT22;17097;50.916;5.344;2023-05-07T03:06:58;16.60;99.90
30280;DHT22;17097;50.916;5.344;2023-05-07T03:09:24;16.60;99.90
30280;DHT22;17097;50.916;5.344;2023-05-07T03:11:51;16.60;99.90
30280;DHT22;17097;50.916;5.344;2023-05-07T03:14:17;16.60;99.90
30280;DHT22;17097;50.916;5.344;2023-05-07T03:16:43;16.60;99.90
30280;DHT22;17097;50.916;5.344;2023-05-07T03:19:12;16.60;99.90
30280;DHT22;17097;50.916;5.344;2023-05-07T03:21:37;16.50;99.90
30280;DHT22;17097;50.916;5.344;2023-05-07T03:24:04;16.50;99.90
30280;DHT22;17097;50.916;5.344;2023-05-07T03:26:30;16.50;99.90
30280;DHT22;17097;50.916;5.344;2023-05-07T03:28:56;16.50;99.90
30280;DHT22;17097;50.916;5.344;2023-05-07T03:31:22;16.50;99.90
30280;DHT22;17097;50.916;5.344;2023-05-07T03:36:18;16.50;99.90
30280;DHT22;17097;50.916;5.344;2023-05-07T03:38:44;16.60;99.90
30280;DHT22;17097;50.916;5.344;2023-05-07T03:41:11;16.60;99.90
30280;DHT22;17097;50.916;5.344;2023-05-07T03:43:37;16.60;99.90
30280;DHT22;17097;50.916;5.344;2023-05-07T03:46:02;16.60;99.90
30280;DHT22;17097;50.916;5.344;2023-05-07T03:48:28;16.60;99.90
30280;DHT22;17097;50.916;5.344;2023-05-07T03:50:56;16.60;99.90
30280;DHT22;17097;50.916;5.344;2023-05-07T03:53:22;16.70;99.90
30280;DHT22;17097;50.916;5.344;2023-05-07T03:55:48;16.70;99.90
30280;DHT22;17097;50.916;5.344;2023-05-07T03:58:14;16.70;99.90
30280;DHT22;17097;50.916;5.344;2023-05-07T04:00:40;16.70;99.90
30280;DHT22;17097;50.916;5.344;2023-05-07T04:03:07;16.70;99.90
30280;DHT22;17097;50.916;5.344;2023-05-07T04:05:32;16.70;99.90
30280;DHT22;17097;50.916;5.344;2023-05-07T04:07:58;16.60;99.90
30280;DHT22;17097;50.916;5.344;2023-05-07T04:10:25;16.50;99.90
30280;DHT22;17097;50.916;5.344;2023-05-07T04:12:51;16.50;99.90
30280;DHT22;17097;50.916;5.344;2023-05-07T04:15:17;16.50;99.90
30280;DHT22;17097;50.916;5.344;2023-05-07T04:17:43;16.50;99.90
30280;DHT22;17097;50.916;5.344;2023-05-07T04:20:15;16.50;99.90
30280;DHT22;17097;50.916;5.344;2023-05-07T04:22:41;16.50;99.90
30280;DHT22;17097;50.916;5.344;2023-05-07T04:25:08;16.50;99.90
30280;DHT22;17097;50.916;5.344;2023-05-07T04:27:34;16.50;99.90
30280;DHT22;17097;50.916;5.344;2023-05-07T04:30:03;16.40;99.90
30280;DHT22;17097;50.916;5.344;2023-05-07T04:32:30;16.50;99.90
30280;DHT22;17097;50.916;5.344;2023-05-07T04:34:56;16.50;99.90
30280;DHT22;17097;50.916;5.344;2023-05-07T04:37:22;16.50;99.90
30280;DHT22;17097;50.916;5.344;2023-05-07T04:39:48;16.60;99.90
30280;DHT22;17097;50.916;5.344;2023-05-07T04:42:18;16.60;99.90
30280;DHT22;17097;50.916;5.344;2023-05-07T04:44:45;16.60;99.90
30280;DHT22;17097;50.916;5.344;2023-05-07T04:47:13;16.70;99.90
30280;DHT22;17097;50.916;5.344;2023-05-07T04:49:42;16.60;99.90
30280;DHT22;17097;50.916;5.344;2023-05-07T04:52:07;16.70;99.90
30280;DHT22;17097;50.916;5.344;2023-05-07T04:54:33;16.70;99.90
30280;DHT22;17097;50.916;5.344;2023-05-07T04:56:59;16.70;99.90
30280;DHT22;17097;50.916;5.344;2023-05-07T04:59:26;16.80;99.90
30280;DHT22;17097;50.916;5.344;2023-05-07T05:01:52;16.80;99.90
30280;DHT22;17097;50.916;5.344;2023-05-07T05:04:18;16.80;99.90
30280;DHT22;17097;50.916;5.344;2023-05-07T05:06:44;16.80;99.90
30280;DHT22;17097;50.916;5.344;2023-05-07T05:09:10;16.80;99.90
30280;DHT22;17097;50.916;5.344;2023-05-07T05:11:36;16.90;99.90
30280;DHT22;17097;50.916;5.344;2023-05-07T05:14:02;16.90;99.90
30280;DHT22;17097;50.916;5.344;2023-05-07T05:16:27;16.90;99.90
30280;DHT22;17097;50.916;5.344;2023-05-07T05:18:55;16.90;99.90
30280;DHT22;17097;50.916;5.344;2023-05-07T05:21:21;17.00;99.90
30280;DHT22;17097;50.916;5.344;2023-05-07T05:23:47;17.00;99.90
30280;DHT22;17097;50.916;5.344;2023-05-07T05:26:13;17.00;99.90
30280;DHT22;17097;50.916;5.344;2023-05-07T05:28:41;17.10;99.90
30280;DHT22;17097;50.916;5.344;2023-05-07T05:31:07;17.20;99.90
30280;DHT22;17097;50.916;5.344;2023-05-07T05:33:33;17.30;99.90
30280;DHT22;17097;50.916;5.344;2023-05-07T05:35:59;17.40;99.90
30280;DHT22;17097;50.916;5.344;2023-05-07T05:38:25;17.30;99.90
30280;DHT22;17097;50.916;5.344;2023-05-07T05:40:51;17.40;99.90
30280;DHT22;17097;50.916;5.344;2023-05-07T05:43:19;17.50;99.90
30280;DHT22;17097;50.916;5.344;2023-05-07T05:45:45;17.50;99.90
30280;DHT22;17097;50.916;5.344;2023-05-07T05:48:11;17.60;99.90
30280;DHT22;17097;50.916;5.344;2023-05-07T05:50:37;17.80;99.90
30280;DHT22;17097;50.916;5.344;2023-05-07T05:53:03;17.90;99.90
30280;DHT22;17097;50.916;5.344;2023-05-07T05:55:29;18.10;99.90
30280;DHT22;17097;50.916;5.344;2023-05-07T05:57:56;18.20;99.90
30280;DHT22;17097;50.916;5.344;2023-05-07T06:00:24;18.30;99.90
30280;DHT22;17097;50.916;5.344;2023-05-07T06:02:49;18.40;99.90
30280;DHT22;17097;50.916;5.344;2023-05-07T06:05:15;18.60;99.90
30280;DHT22;17097;50.916;5.344;2023-05-07T06:07:41;18.60;99.90
30280;DHT22;17097;50.916;5.344;2023-05-07T06:10:07;18.60;99.90
30280;DHT22;17097;50.916;5.344;2023-05-07T06:12:33;18.70;99.90
30280;DHT22;17097;50.916;5.344;2023-05-07T06:15:00;18.80;99.90
30280;DHT22;17097;50.916;5.344;2023-05-07T06:17:27;18.90;99.90
30280;DHT22;17097;50.916;5.344;2023-05-07T06:19:52;19.00;99.90
30280;DHT22;17097;50.916;5.344;2023-05-07T06:22:21;19.00;99.90
30280;DHT22;17097;50.916;5.344;2023-05-07T06:24:47;19.00;99.90
30280;DHT22;17097;50.916;5.344;2023-05-07T06:27:13;19.10;99.90
30280;DHT22;17097;50.916;5.344;2023-05-07T06:29:41;19.30;99.90
30280;DHT22;17097;50.916;5.344;2023-05-07T06:32:12;19.60;99.90
30280;DHT22;17097;50.916;5.344;2023-05-07T06:34:39;19.60;99.90
30280;DHT22;17097;50.916;5.344;2023-05-07T06:37:06;19.60;99.90
30280;DHT22;17097;50.916;5.344;2023-05-07T06:39:32;19.70;99.90
30280;DHT22;17097;50.916;5.344;2023-05-07T06:42:00;19.80;99.90
30280;DHT22;17097;50.916;5.344;2023-05-07T06:44:26;19.90;99.90
30280;DHT22;17097;50.916;5.344;2023-05-07T06:46:52;19.90;99.90
30280;DHT22;17097;50.916;5.344;2023-05-07T06:49:20;20.00;99.90
30280;DHT22;17097;50.916;5.344;2023-05-07T06:51:46;20.00;99.90
30280;DHT22;17097;50.916;5.344;2023-05-07T06:54:12;20.00;99.90
30280;DHT22;17097;50.916;5.344;2023-05-07T06:56:38;20.00;99.90
30280;DHT22;17097;50.916;5.344;2023-05-07T06:59:06;20.10;99.90
30280;DHT22;17097;50.916;5.344;2023-05-07T07:01:34;20.00;99.90
30280;DHT22;17097;50.916;5.344;2023-05-07T07:04:00;20.00;99.90
30280;DHT22;17097;50.916;5.344;2023-05-07T07:06:25;20.00;99.90
30280;DHT22;17097;50.916;5.344;2023-05-07T07:08:55;20.00;99.90
30280;DHT22;17097;50.916;5.344;2023-05-07T07:11:20;20.10;99.90
30280;DHT22;17097;50.916;5.344;2023-05-07T07:13:46;20.20;99.90
30280;DHT22;17097;50.916;5.344;2023-05-07T07:16:12;20.10;99.90
30280;DHT22;17097;50.916;5.344;2023-05-07T07:18:38;20.10;99.90
30280;DHT22;17097;50.916;5.344;2023-05-07T07:21:05;20.20;99.90
30280;DHT22;17097;50.916;5.344;2023-05-07T07:23:33;20.20;99.90
30280;DHT22;17097;50.916;5.344;2023-05-07T07:25:59;20.30;99.90
30280;DHT22;17097;50.916;5.344;2023-05-07T07:28:27;20.40;99.90
30280;DHT22;17097;50.916;5.344;2023-05-07T07:30:53;20.70;99.90
30280;DHT22;17097;50.916;5.344;2023-05-07T07:33:19;20.70;99.90
30280;DHT22;17097;50.916;5.344;2023-05-07T07:35:45;20.70;99.90
30280;DHT22;17097;50.916;5.344;2023-05-07T07:38:10;20.80;99.90
30280;DHT22;17097;50.916;5.344;2023-05-07T07:40:38;20.90;99.90
30280;DHT22;17097;50.916;5.344;2023-05-07T07:43:04;20.90;99.90
30280;DHT22;17097;50.916;5.344;2023-05-07T07:45:31;21.00;99.90
30280;DHT22;17097;50.916;5.344;2023-05-07T07:48:00;21.20;99.90
30280;DHT22;17097;50.916;5.344;2023-05-07T07:50:26;21.30;99.90
30280;DHT22;17097;50.916;5.344;2023-05-07T07:52:51;21.50;99.90
30280;DHT22;17097;50.916;5.344;2023-05-07T07:55:19;21.50;99.90
30280;DHT22;17097;50.916;5.344;2023-05-07T07:57:49;21.60;99.90
30280;DHT22;17097;50.916;5.344;2023-05-07T08:00:17;21.70;99.90
30280;DHT22;17097;50.916;5.344;2023-05-07T08:02:44;21.90;99.90
30280;DHT22;17097;50.916;5.344;2023-05-07T08:05:10;22.10;99.90
30280;DHT22;17097;50.916;5.344;2023-05-07T08:07:38;22.20;99.90
30280;DHT22;17097;50.916;5.344;2023-05-07T08:10:04;22.20;99.90
30280;DHT22;17097;50.916;5.344;2023-05-07T08:12:30;22.20;99.90
30280;DHT22;17097;50.916;5.344;2023-05-07T08:14:55;22.30;99.90
30280;DHT22;17097;50.916;5.344;2023-05-07T08:17:21;22.50;99.90
30280;DHT22;17097;50.916;5.344;2023-05-07T08:19:49;22.50;99.90
30280;DHT22;17097;50.916;5.344;2023-05-07T08:22:15;22.40;99.90
30280;DHT22;17097;50.916;5.344;2023-05-07T08:24:43;22.50;99.90
30280;DHT22;17097;50.916;5.344;2023-05-07T08:27:09;22.70;99.90
30280;DHT22;17097;50.916;5.344;2023-05-07T08:29:35;22.90;99.90
30280;DHT22;17097;50.916;5.344;2023-05-07T08:32:01;23.00;99.90
30280;DHT22;17097;50.916;5.344;2023-05-07T08:34:27;23.00;99.90
30280;DHT22;17097;50.916;5.344;2023-05-07T08:36:53;23.10;99.90
30280;DHT22;17097;50.916;5.344;2023-05-07T08:39:21;23.10;99.90
30280;DHT22;17097;50.916;5.344;2023-05-07T08:41:55;22.90;99.90
30280;DHT22;17097;50.916;5.344;2023-05-07T08:44:23;22.90;99.90
30280;DHT22;17097;50.916;5.344;2023-05-07T08:46:52;22.90;99.90
30280;DHT22;17097;50.916;5.344;2023-05-07T08:49:20;23.10;99.90
30280;DHT22;17097;50.916;5.344;2023-05-07T08:51:46;23.20;99.90
30280;DHT22;17097;50.916;5.344;2023-05-07T08:54:15;23.40;99.90
30280;DHT22;17097;50.916;5.344;2023-05-07T08:56:44;23.70;99.90
30280;DHT22;17097;50.916;5.344;2023-05-07T08:59:10;23.70;99.90
30280;DHT22;17097;50.916;5.344;2023-05-07T09:01:36;24.00;99.90
30280;DHT22;17097;50.916;5.344;2023-05-07T09:04:02;24.30;99.90
30280;DHT22;17097;50.916;5.344;2023-05-07T09:06:30;24.80;99.90
30280;DHT22;17097;50.916;5.344;2023-05-07T09:08:57;25.20;99.90
30280;DHT22;17097;50.916;5.344;2023-05-07T09:11:24;25.60;99.90
30280;DHT22;17097;50.916;5.344;2023-05-07T09:13:57;25.90;99.90
30280;DHT22;17097;50.916;5.344;2023-05-07T09:16:25;26.10;99.90
30280;DHT22;17097;50.916;5.344;2023-05-07T09:18:52;25.90;99.90
30280;DHT22;17097;50.916;5.344;2023-05-07T09:21:21;25.70;99.90
30280;DHT22;17097;50.916;5.344;2023-05-07T09:23:50;25.60;99.90
30280;DHT22;17097;50.916;5.344;2023-05-07T09:26:16;25.70;99.90
30280;DHT22;17097;50.916;5.344;2023-05-07T09:28:42;25.70;99.90
30280;DHT22;17097;50.916;5.344;2023-05-07T09:31:11;25.20;99.90
30280;DHT22;17097;50.916;5.344;2023-05-07T09:33:38;25.50;99.90
30280;DHT22;17097;50.916;5.344;2023-05-07T09:36:10;25.40;99.90
30280;DHT22;17097;50.916;5.344;2023-05-07T09:38:37;25.70;99.90
30280;DHT22;17097;50.916;5.344;2023-05-07T09:41:11;25.90;99.90
30280;DHT22;17097;50.916;5.344;2023-05-07T09:43:40;25.60;99.90
30280;DHT22;17097;50.916;5.344;2023-05-07T09:46:16;25.00;99.90
30280;DHT22;17097;50.916;5.344;2023-05-07T09:48:44;24.90;99.90
30280;DHT22;17097;50.916;5.344;2023-05-07T09:51:25;25.10;99.90
30280;DHT22;17097;50.916;5.344;2023-05-07T09:53:54;25.30;99.90
30280;DHT22;17097;50.916;5.344;2023-05-07T09:56:21;25.60;99.90
30280;DHT22;17097;50.916;5.344;2023-05-07T09:58:47;25.20;99.90
30280;DHT22;17097;50.916;5.344;2023-05-07T10:01:13;24.80;99.90
30280;DHT22;17097;50.916;5.344;2023-05-07T10:03:42;24.80;99.90
30280;DHT22;17097;50.916;5.344;2023-05-07T10:06:12;24.40;99.90
30280;DHT22;17097;50.916;5.344;2023-05-07T10:08:39;24.50;99.90
30280;DHT22;17097;50.916;5.344;2023-05-07T10:11:05;24.40;99.90
30280;DHT22;17097;50.916;5.344;2023-05-07T10:13:33;24.00;99.90
30280;DHT22;17097;50.916;5.344;2023-05-07T10:16:04;23.50;99.90
30280;DHT22;17097;50.916;5.344;2023-05-07T10:18:33;23.60;99.90
30280;DHT22;17097;50.916;5.344;2023-05-07T10:21:11;23.20;99.90
30280;DHT22;17097;50.916;5.344;2023-05-07T10:23:40;22.90;99.90
30280;DHT22;17097;50.916;5.344;2023-05-07T10:26:08;22.80;99.90
30280;DHT22;17097;50.916;5.344;2023-05-07T10:28:36;22.90;99.90
30280;DHT22;17097;50.916;5.344;2023-05-07T10:33:45;22.60;99.90
30280;DHT22;17097;50.916;5.344;2023-05-07T10:36:12;22.30;99.90
30280;DHT22;17097;50.916;5.344;2023-05-07T10:38:39;22.20;99.90
30280;DHT22;17097;50.916;5.344;2023-05-07T10:41:06;22.00;99.90
30280;DHT22;17097;50.916;5.344;2023-05-07T10:43:44;21.90;99.90
30280;DHT22;17097;50.916;5.344;2023-05-07T10:46:17;21.50;99.90
30280;DHT22;17097;50.916;5.344;2023-05-07T10:51:29;21.70;99.90
30280;DHT22;17097;50.916;5.344;2023-05-07T10:54:19;21.50;99.90
30280;DHT22;17097;50.916;5.344;2023-05-07T10:56:45;21.60;99.90
30280;DHT22;17097;50.916;5.344;2023-05-07T11:02:10;21.40;99.90
30280;DHT22;17097;50.916;5.344;2023-05-07T11:04:39;21.30;99.90
30280;DHT22;17097;50.916;5.344;2023-05-07T11:15:08;21.40;99.90
30280;DHT22;17097;50.916;5.344;2023-05-07T11:17:57;21.10;99.90
30280;DHT22;17097;50.916;5.344;2023-05-07T11:20:52;20.70;99.90
30280;DHT22;17097;50.916;5.344;2023-05-07T11:26:00;20.70;99.90
30280;DHT22;17097;50.916;5.344;2023-05-07T11:28:28;20.70;99.90
30280;DHT22;17097;50.916;5.344;2023-05-07T11:30:54;20.70;99.90
30280;DHT22;17097;50.916;5.344;2023-05-07T11:33:22;20.60;99.90
30280;DHT22;17097;50.916;5.344;2023-05-07T11:35:48;20.50;99.90
30280;DHT22;17097;50.916;5.344;2023-05-07T11:38:17;20.40;99.90
30280;DHT22;17097;50.916;5.344;2023-05-07T11:40:49;20.30;99.90
30280;DHT22;17097;50.916;5.344;2023-05-07T11:43:19;20.10;99.90
30280;DHT22;17097;50.916;5.344;2023-05-07T11:45:45;20.00;99.90
30280;DHT22;17097;50.916;5.344;2023-05-07T11:48:15;20.20;99.90
30280;DHT22;17097;50.916;5.344;2023-05-07T11:51:01;20.20;99.90
30280;DHT22;17097;50.916;5.344;2023-05-07T11:53:34;20.50;99.90
30280;DHT22;17097;50.916;5.344;2023-05-07T11:56:08;20.50;99.90
30280;DHT22;17097;50.916;5.344;2023-05-07T11:58:34;20.50;99.90
30280;DHT22;17097;50.916;5.344;2023-05-07T12:01:00;20.60;99.90
30280;DHT22;17097;50.916;5.344;2023-05-07T12:03:26;20.50;99.90
30280;DHT22;17097;50.916;5.344;2023-05-07T12:05:52;20.50;99.90
30280;DHT22;17097;50.916;5.344;2023-05-07T12:08:19;20.60;99.90
30280;DHT22;17097;50.916;5.344;2023-05-07T12:10:47;20.50;99.90
30280;DHT22;17097;50.916;5.344;2023-05-07T12:15:53;20.60;99.90
30280;DHT22;17097;50.916;5.344;2023-05-07T12:18:19;20.60;99.90
30280;DHT22;17097;50.916;5.344;2023-05-07T12:20:45;20.70;99.90
30280;DHT22;17097;50.916;5.344;2023-05-07T12:23:12;20.60;99.90
30280;DHT22;17097;50.916;5.344;2023-05-07T12:25:39;20.30;99.90
30280;DHT22;17097;50.916;5.344;2023-05-07T12:28:07;20.20;99.90
30280;DHT22;17097;50.916;5.344;2023-05-07T12:30:37;20.40;99.90
30280;DHT22;17097;50.916;5.344;2023-05-07T12:33:04;20.30;99.90
30280;DHT22;17097;50.916;5.344;2023-05-07T12:35:31;20.20;99.90
30280;DHT22;17097;50.916;5.344;2023-05-07T12:37:58;20.20;99.90
30280;DHT22;17097;50.916;5.344;2023-05-07T12:40:44;20.30;99.90
30280;DHT22;17097;50.916;5.344;2023-05-07T12:43:20;19.80;99.90
30280;DHT22;17097;50.916;5.344;2023-05-07T12:45:50;19.60;99.90
30280;DHT22;17097;50.916;5.344;2023-05-07T12:48:16;19.80;99.90
30280;DHT22;17097;50.916;5.344;2023-05-07T12:50:44;19.90;99.90
30280;DHT22;17097;50.916;5.344;2023-05-07T12:53:12;20.20;99.90
30280;DHT22;17097;50.916;5.344;2023-05-07T12:58:26;20.30;99.90
30280;DHT22;17097;50.916;5.344;2023-05-07T13:00:57;20.30;99.90
30280;DHT22;17097;50.916;5.344;2023-05-07T13:03:36;20.40;99.90
30280;DHT22;17097;50.916;5.344;2023-05-07T13:06:07;20.60;99.90
30280;DHT22;17097;50.916;5.344;2023-05-07T13:08:39;20.90;99.90
30280;DHT22;17097;50.916;5.344;2023-05-07T13:11:11;20.80;99.90
30280;DHT22;17097;50.916;5.344;2023-05-07T13:13:39;20.80;99.90
30280;DHT22;17097;50.916;5.344;2023-05-07T13:16:08;20.70;99.90
30280;DHT22;17097;50.916;5.344;2023-05-07T13:18:34;20.80;99.90
30280;DHT22;17097;50.916;5.344;2023-05-07T13:21:01;20.90;99.90
30280;DHT22;17097;50.916;5.344;2023-05-07T13:23:30;20.90;99.90
30280;DHT22;17097;50.916;5.344;2023-05-07T13:25:56;20.90;99.90
30280;DHT22;17097;50.916;5.344;2023-05-07T13:28:26;21.00;99.90
30280;DHT22;17097;50.916;5.344;2023-05-07T13:30:53;21.10;99.90
30280;DHT22;17097;50.916;5.344;2023-05-07T13:33:21;21.00;99.90
30280;DHT22;17097;50.916;5.344;2023-05-07T13:35:49;21.10;99.90
30280;DHT22;17097;50.916;5.344;2023-05-07T13:38:15;21.30;99.90
30280;DHT22;17097;50.916;5.344;2023-05-07T13:40:41;21.40;99.90
30280;DHT22;17097;50.916;5.344;2023-05-07T13:43:07;21.60;99.90
30280;DHT22;17097;50.916;5.344;2023-05-07T13:45:33;21.60;99.90
30280;DHT22;17097;50.916;5.344;2023-05-07T13:47:58;21.60;99.90
30280;DHT22;17097;50.916;5.344;2023-05-07T13:50:24;21.70;99.90
30280;DHT22;17097;50.916;5.344;2023-05-07T13:52:52;21.70;99.90
30280;DHT22;17097;50.916;5.344;2023-05-07T13:55:18;21.70;99.90
30280;DHT22;17097;50.916;5.344;2023-05-07T13:57:44;21.90;99.90
30280;DHT22;17097;50.916;5.344;2023-05-07T14:00:11;22.00;99.90
30280;DHT22;17097;50.916;5.344;2023-05-07T14:02:40;21.90;99.90
30280;DHT22;17097;50.916;5.344;2023-05-07T14:05:11;21.90;99.90
30280;DHT22;17097;50.916;5.344;2023-05-07T14:07:41;21.90;99.90
30280;DHT22;17097;50.916;5.344;2023-05-07T14:10:07;21.60;99.90
30280;DHT22;17097;50.916;5.344;2023-05-07T14:12:33;21.50;99.90
30280;DHT22;17097;50.916;5.344;2023-05-07T14:14:59;21.50;99.90
30280;DHT22;17097;50.916;5.344;2023-05-07T14:17:25;21.50;99.90
30280;DHT22;17097;50.916;5.344;2023-05-07T14:19:53;21.70;99.90
30280;DHT22;17097;50.916;5.344;2023-05-07T14:22:22;21.90;99.90
30280;DHT22;17097;50.916;5.344;2023-05-07T14:24:48;21.90;99.90
30280;DHT22;17097;50.916;5.344;2023-05-07T14:27:15;21.90;99.90
30280;DHT22;17097;50.916;5.344;2023-05-07T14:29:41;22.20;99.90
30280;DHT22;17097;50.916;5.344;2023-05-07T14:32:07;21.90;99.90
30280;DHT22;17097;50.916;5.344;2023-05-07T14:34:33;21.50;99.90
30280;DHT22;17097;50.916;5.344;2023-05-07T14:37:00;21.70;99.90
30280;DHT22;17097;50.916;5.344;2023-05-07T14:39:28;21.70;99.90
30280;DHT22;17097;50.916;5.344;2023-05-07T14:41:56;21.70;99.90
30280;DHT22;17097;50.916;5.344;2023-05-07T14:44:22;21.90;99.90
30280;DHT22;17097;50.916;5.344;2023-05-07T14:46:48;21.80;99.90
30280;DHT22;17097;50.916;5.344;2023-05-07T14:49:14;22.00;99.90
30280;DHT22;17097;50.916;5.344;2023-05-07T14:51:46;21.90;99.90
30280;DHT22;17097;50.916;5.344;2023-05-07T14:54:13;21.90;99.90
30280;DHT22;17097;50.916;5.344;2023-05-07T14:56:39;21.90;99.90
30280;DHT22;17097;50.916;5.344;2023-05-07T14:59:06;21.90;99.90
30280;DHT22;17097;50.916;5.344;2023-05-07T15:01:32;21.80;99.90
30280;DHT22;17097;50.916;5.344;2023-05-07T15:03:59;21.80;99.90
30280;DHT22;17097;50.916;5.344;2023-05-07T15:06:25;21.50;99.90
30280;DHT22;17097;50.916;5.344;2023-05-07T15:08:54;21.50;99.90
30280;DHT22;17097;50.916;5.344;2023-05-07T15:11:19;21.40;99.90
30280;DHT22;17097;50.916;5.344;2023-05-07T15:13:45;21.10;99.90
30280;DHT22;17097;50.916;5.344;2023-05-07T15:16:12;21.30;99.90
30280;DHT22;17097;50.916;5.344;2023-05-07T15:18:38;21.30;99.90
30280;DHT22;17097;50.916;5.344;2023-05-07T15:21:06;21.50;99.90
30280;DHT22;17097;50.916;5.344;2023-05-07T15:23:33;21.60;99.90
30280;DHT22;17097;50.916;5.344;2023-05-07T15:25:59;21.60;99.90
30280;DHT22;17097;50.916;5.344;2023-05-07T15:28:26;21.60;99.90
30280;DHT22;17097;50.916;5.344;2023-05-07T15:30:54;21.80;99.90
30280;DHT22;17097;50.916;5.344;2023-05-07T15:33:22;21.80;99.90
30280;DHT22;17097;50.916;5.344;2023-05-07T15:35:49;21.90;99.90
30280;DHT22;17097;50.916;5.344;2023-05-07T15:38:14;21.60;99.90
30280;DHT22;17097;50.916;5.344;2023-05-07T15:40:41;21.70;99.90
30280;DHT22;17097;50.916;5.344;2023-05-07T15:43:08;21.60;99.90
30280;DHT22;17097;50.916;5.344;2023-05-07T15:45:41;21.50;99.90
30280;DHT22;17097;50.916;5.344;2023-05-07T15:48:11;21.80;99.90
30280;DHT22;17097;50.916;5.344;2023-05-07T15:50:37;21.80;99.90
30280;DHT22;17097;50.916;5.344;2023-05-07T15:53:03;21.80;99.90
30280;DHT22;17097;50.916;5.344;2023-05-07T15:55:30;21.90;99.90
30280;DHT22;17097;50.916;5.344;2023-05-07T15:57:59;21.60;99.90